Terminal Aerodrome Forecast
Issued by NWS

Home | Current Version | Previous Version | Text Only | Print | Product List | Glossary On
Versions: 1 2 3 4 5 6 7 8 9 10 11 12 13
354
FTUS45 KVEF 161120
TAFDAG
TAF
KDAG 161120Z 1612/1712 26015KT P6SM SKC
     FM161800 29010KT P6SM SKC
     FM162100 VRB06KT P6SM SKC
     FM170300 26014KT P6SM SKC=

USA.gov is the U.S. government's official web portal to all federal, state and local government web resources and services.